createdAt,value
2024-03-26T00:00:12.812Z,2.31
2024-03-26T00:02:59.978Z,2.29
2024-03-26T00:05:27.221Z,2.25
2024-03-26T00:07:54.351Z,2.21
2024-03-26T00:10:21.562Z,2.15
2024-03-26T00:12:48.740Z,2.12
2024-03-26T00:15:16.033Z,2.08
2024-03-26T00:17:43.266Z,2.03
2024-03-26T00:20:11.387Z,1.99
2024-03-26T00:22:38.569Z,1.94
2024-03-26T00:25:06.122Z,1.90
2024-03-26T00:27:33.323Z,1.87
2024-03-26T00:30:00.538Z,1.84
2024-03-26T00:32:28.370Z,1.80
2024-03-26T00:34:55.557Z,1.77
2024-03-26T00:37:22.717Z,1.74
2024-03-26T00:39:49.864Z,1.71
2024-03-26T00:42:17.039Z,1.67
2024-03-26T00:44:44.230Z,1.64
2024-03-26T00:47:11.413Z,1.63
2024-03-26T00:49:39.255Z,1.61
2024-03-26T00:52:06.476Z,1.60
2024-03-26T00:54:33.839Z,1.59
2024-03-26T00:57:01.046Z,1.56
2024-03-26T00:59:29.279Z,1.51
2024-03-26T01:01:56.550Z,1.46
2024-03-26T01:04:24.155Z,1.40
2024-03-26T01:06:51.290Z,1.35
2024-03-26T01:09:18.442Z,1.31
2024-03-26T01:11:48.785Z,1.29
2024-03-26T01:14:15.979Z,1.25
2024-03-26T01:16:43.172Z,1.23
2024-03-26T01:19:10.385Z,1.22
2024-03-26T01:21:37.530Z,1.19
2024-03-26T01:24:04.834Z,1.16
2024-03-26T01:26:32.016Z,1.14
2024-03-26T01:28:59.229Z,1.13
2024-03-26T01:31:26.422Z,1.12
2024-03-26T01:33:53.620Z,1.08
2024-03-26T01:36:20.785Z,1.05
2024-03-26T01:38:47.924Z,1.03
2024-03-26T01:41:15.091Z,1.02
2024-03-26T01:43:42.256Z,1.00
2024-03-26T01:46:10.082Z,1.00
2024-03-26T01:48:37.288Z,0.99
2024-03-26T01:51:05.186Z,0.98
2024-03-26T01:53:32.394Z,0.96
2024-03-26T01:56:00.686Z,0.95
2024-03-26T01:58:28.392Z,0.94
2024-03-26T02:00:58.602Z,0.93
2024-03-26T02:03:25.908Z,0.92
2024-03-26T02:05:53.221Z,0.91
2024-03-26T02:08:20.536Z,0.89
2024-03-26T02:10:47.707Z,0.88
2024-03-26T02:13:14.842Z,0.86
2024-03-26T02:15:41.998Z,0.86
2024-03-26T02:18:09.194Z,0.86
2024-03-26T02:20:37.980Z,0.85
2024-03-26T02:23:05.127Z,0.85
2024-03-26T02:25:32.608Z,0.86
2024-03-26T02:27:59.778Z,0.86
2024-03-26T02:30:26.941Z,0.86
2024-03-26T02:32:54.088Z,0.86
2024-03-26T02:35:21.268Z,0.85
2024-03-26T02:37:49.360Z,0.82
2024-03-26T02:40:16.635Z,0.81
2024-03-26T02:42:43.782Z,0.80
2024-03-26T02:45:11.211Z,0.81
2024-03-26T02:47:38.350Z,0.83
2024-03-26T02:50:06.435Z,0.85
2024-03-26T02:52:33.942Z,0.90
2024-03-26T02:55:01.290Z,0.91
2024-03-26T02:57:28.594Z,0.91
2024-03-26T02:59:55.759Z,0.91
2024-03-26T03:02:22.936Z,0.92
2024-03-26T03:04:50.079Z,0.92
2024-03-26T03:07:17.280Z,0.92
2024-03-26T03:09:47.047Z,0.92
2024-03-26T03:12:14.202Z,0.93
2024-03-26T03:14:43.911Z,0.95
2024-03-26T03:17:11.058Z,0.96
2024-03-26T03:19:38.210Z,0.98
2024-03-26T03:22:05.425Z,0.99
2024-03-26T03:24:32.564Z,1.00
2024-03-26T03:26:59.709Z,1.02
2024-03-26T03:29:26.901Z,1.02
2024-03-26T03:31:54.082Z,1.04
2024-03-26T03:34:21.432Z,1.06
2024-03-26T03:36:48.578Z,1.07
2024-03-26T03:39:16.554Z,1.07
2024-03-26T03:41:43.721Z,1.07
2024-03-26T03:44:12.878Z,1.08
2024-03-26T03:46:40.027Z,1.07
2024-03-26T03:49:07.196Z,1.07
2024-03-26T03:51:36.564Z,1.06
2024-03-26T03:54:03.909Z,1.05
2024-03-26T03:56:31.125Z,1.03
2024-03-26T03:58:58.293Z,1.03
2024-03-26T04:01:25.441Z,1.03
2024-03-26T04:03:52.638Z,1.03
2024-03-26T04:06:19.839Z,1.03
2024-03-26T04:08:47.047Z,1.04
2024-03-26T04:11:14.222Z,1.03
2024-03-26T04:13:41.441Z,1.03
2024-03-26T04:16:08.580Z,1.01
2024-03-26T04:18:36.432Z,0.99
2024-03-26T04:21:04.059Z,0.97
2024-03-26T04:23:31.194Z,0.96
2024-03-26T04:25:58.560Z,0.94
2024-03-26T04:28:28.681Z,0.94
2024-03-26T04:30:56.129Z,0.94
2024-03-26T04:33:23.379Z,0.94
2024-03-26T04:35:50.573Z,0.93
2024-03-26T04:38:17.758Z,0.93
2024-03-26T04:40:45.735Z,0.93
2024-03-26T04:43:13.031Z,0.92
2024-03-26T04:45:40.173Z,0.91
2024-03-26T04:48:07.779Z,0.90
2024-03-26T04:50:35.075Z,0.90
2024-03-26T04:53:02.584Z,0.90
2024-03-26T04:55:30.448Z,0.90
2024-03-26T04:57:57.641Z,0.90
2024-03-26T05:00:24.902Z,0.91
2024-03-26T05:02:52.069Z,0.93
2024-03-26T05:05:19.659Z,0.95
2024-03-26T05:07:46.885Z,0.98
2024-03-26T05:10:14.055Z,1.01
2024-03-26T05:12:43.677Z,1.05
2024-03-26T05:15:11.005Z,1.09
2024-03-26T05:17:38.167Z,1.13
2024-03-26T05:20:06.136Z,1.18
2024-03-26T05:22:33.274Z,1.23
2024-03-26T05:25:00.413Z,1.25
2024-03-26T05:27:27.690Z,1.26
2024-03-26T05:29:54.884Z,1.26
2024-03-26T05:32:22.706Z,1.25
2024-03-26T05:34:50.317Z,1.24
2024-03-26T05:37:17.944Z,1.23
2024-03-26T05:39:45.186Z,1.25
2024-03-26T05:42:12.495Z,1.27
2024-03-26T05:44:39.694Z,1.31
2024-03-26T05:47:07.077Z,1.34
2024-03-26T05:49:35.279Z,1.37
2024-03-26T05:52:02.945Z,1.43
2024-03-26T05:54:30.130Z,1.52
2024-03-26T05:56:57.323Z,1.60
2024-03-26T05:59:24.513Z,1.68
2024-03-26T06:01:51.672Z,1.77
2024-03-26T06:04:18.864Z,1.83
2024-03-26T06:06:46.167Z,1.89
2024-03-26T06:09:13.479Z,1.94
2024-03-26T06:11:40.788Z,2.00
2024-03-26T06:14:08.384Z,2.07
2024-03-26T06:16:35.781Z,2.14
2024-03-26T06:19:04.250Z,2.22
2024-03-26T06:21:31.503Z,2.32
2024-03-26T06:23:58.786Z,2.42
2024-03-26T06:26:26.320Z,2.53
2024-03-26T06:28:53.462Z,2.62
2024-03-26T06:31:20.652Z,2.72
2024-03-26T06:33:47.873Z,2.79
2024-03-26T06:36:15.026Z,2.84
2024-03-26T06:38:42.186Z,2.87
2024-03-26T06:41:10.037Z,2.87
2024-03-26T06:43:37.273Z,2.86
2024-03-26T06:46:05.152Z,2.87
2024-03-26T06:48:33.023Z,2.87
2024-03-26T06:51:00.774Z,2.88
2024-03-26T06:53:27.991Z,2.94
2024-03-26T06:55:55.670Z,3.01
2024-03-26T06:58:23.172Z,3.10
2024-03-26T07:00:51.515Z,3.16
2024-03-26T07:03:18.777Z,3.23
2024-03-26T07:05:45.942Z,3.29
2024-03-26T07:08:13.272Z,3.36
2024-03-26T07:10:40.455Z,3.42
2024-03-26T07:13:08.332Z,3.52
2024-03-26T07:15:35.956Z,3.64
2024-03-26T07:18:03.273Z,3.78
2024-03-26T07:20:30.562Z,3.92
2024-03-26T07:22:57.760Z,4.04
2024-03-26T07:25:24.961Z,4.17
2024-03-26T07:27:52.105Z,4.30
2024-03-26T07:30:19.353Z,4.44
2024-03-26T07:32:46.546Z,4.57
2024-03-26T07:35:13.753Z,4.69
2024-03-26T07:37:41.109Z,4.80
2024-03-26T07:40:10.467Z,4.91
2024-03-26T07:42:38.263Z,5.01
2024-03-26T07:45:05.838Z,5.10
2024-03-26T07:47:33.286Z,5.21
2024-03-26T07:50:00.672Z,5.32
2024-03-26T07:52:28.142Z,5.44
2024-03-26T07:54:55.380Z,5.55
2024-03-26T07:57:22.633Z,5.63
2024-03-26T07:59:49.914Z,5.71
2024-03-26T08:02:17.614Z,5.81
2024-03-26T08:04:46.311Z,5.93
2024-03-26T08:07:13.520Z,6.09
2024-03-26T08:09:40.696Z,6.27
2024-03-26T08:12:08.489Z,6.45
2024-03-26T08:14:37.900Z,6.64
2024-03-26T08:17:05.053Z,6.83
2024-03-26T08:19:33.199Z,7.04
2024-03-26T08:22:00.804Z,7.27
2024-03-26T08:24:28.170Z,7.51
2024-03-26T08:26:55.585Z,7.78
2024-03-26T08:29:22.840Z,8.05
2024-03-26T08:31:50.576Z,8.28
2024-03-26T08:34:18.439Z,8.50
2024-03-26T08:36:45.749Z,8.74
2024-03-26T08:39:14.847Z,8.97
2024-03-26T08:41:42.004Z,9.20
2024-03-26T08:44:09.345Z,9.43
2024-03-26T08:46:39.742Z,9.63
2024-03-26T08:49:07.036Z,9.87
2024-03-26T08:51:34.200Z,10.05
2024-03-26T08:54:01.484Z,10.03
2024-03-26T08:56:28.717Z,9.95
2024-03-26T08:58:56.574Z,10.06
2024-03-26T09:01:23.732Z,10.26
2024-03-26T09:03:51.463Z,10.50
2024-03-26T09:06:18.654Z,10.70
2024-03-26T09:08:45.885Z,10.87
2024-03-26T09:11:13.035Z,11.04
2024-03-26T09:13:42.750Z,11.26
2024-03-26T09:16:10.324Z,11.40
2024-03-26T09:18:38.022Z,11.52
2024-03-26T09:21:05.811Z,11.65
2024-03-26T09:23:32.918Z,11.85
2024-03-26T09:26:00.067Z,12.11
2024-03-26T09:28:27.244Z,12.31
2024-03-26T09:30:56.019Z,12.38
2024-03-26T09:33:23.115Z,12.43
2024-03-26T09:35:50.512Z,12.52
2024-03-26T09:38:18.695Z,12.53
2024-03-26T09:40:48.693Z,12.54
2024-03-26T09:43:19.468Z,12.55
2024-03-26T09:45:52.338Z,12.60
2024-03-26T09:48:19.908Z,12.66
2024-03-26T09:50:48.955Z,12.76
2024-03-26T09:53:21.544Z,12.98
2024-03-26T09:55:50.327Z,13.17
2024-03-26T09:58:18.023Z,13.33
2024-03-26T10:00:49.992Z,13.49
2024-03-26T10:03:21.039Z,13.59
2024-03-26T10:05:48.643Z,13.73
2024-03-26T10:08:15.905Z,13.83
2024-03-26T10:10:43.259Z,13.94
2024-03-26T10:13:12.089Z,13.86
2024-03-26T10:15:39.830Z,13.89
2024-03-26T10:18:07.522Z,14.11
2024-03-26T10:20:34.666Z,14.55
2024-03-26T10:23:07.450Z,15.05
2024-03-26T10:25:35.094Z,15.14
2024-03-26T10:28:03.737Z,15.18
2024-03-26T10:30:31.087Z,15.47
2024-03-26T10:32:59.690Z,15.67
2024-03-26T10:35:30.981Z,15.51
2024-03-26T10:38:10.399Z,15.48
2024-03-26T10:41:01.203Z,15.57
2024-03-26T10:43:31.934Z,15.70
2024-03-26T10:46:07.928Z,15.70
2024-03-26T10:48:44.421Z,15.52
2024-03-26T10:51:18.275Z,15.18
2024-03-26T10:53:48.015Z,15.16
2024-03-26T10:56:16.286Z,15.12
2024-03-26T10:58:43.586Z,14.84
2024-03-26T11:01:13.615Z,14.60
2024-03-26T11:03:41.123Z,14.70
2024-03-26T11:06:11.512Z,14.68
2024-03-26T11:08:41.192Z,14.68
2024-03-26T11:11:08.383Z,14.96
2024-03-26T11:13:38.153Z,15.37
2024-03-26T11:16:09.519Z,16.03
2024-03-26T11:18:40.448Z,16.70
2024-03-26T11:21:09.307Z,17.10
2024-03-26T11:23:38.082Z,17.12
2024-03-26T11:26:05.215Z,17.06
2024-03-26T11:28:33.093Z,17.32
2024-03-26T11:31:02.807Z,17.68
2024-03-26T11:33:31.540Z,17.90
2024-03-26T11:35:59.412Z,18.11
2024-03-26T11:38:29.399Z,18.45
2024-03-26T11:41:07.638Z,18.95
2024-03-26T11:43:37.583Z,19.54
2024-03-26T11:46:05.371Z,20.02
2024-03-26T11:48:32.770Z,20.24
2024-03-26T11:51:02.151Z,20.21
2024-03-26T11:53:29.498Z,20.40
2024-03-26T11:55:56.818Z,20.70
2024-03-26T11:58:27.625Z,20.59
2024-03-26T12:00:55.245Z,20.25
2024-03-26T12:03:23.437Z,20.17
2024-03-26T12:05:51.594Z,20.23
2024-03-26T12:08:18.912Z,20.57
2024-03-26T12:10:46.192Z,20.95
2024-03-26T12:13:13.447Z,21.20
2024-03-26T12:15:40.652Z,21.35
2024-03-26T12:18:07.865Z,21.77
2024-03-26T12:20:35.081Z,22.11
2024-03-26T12:23:03.787Z,22.44
2024-03-26T12:25:31.681Z,22.76
2024-03-26T12:28:00.294Z,22.58
2024-03-26T12:30:35.320Z,22.66
2024-03-26T12:33:04.203Z,22.54
2024-03-26T12:35:31.535Z,22.22
2024-03-26T12:37:58.766Z,21.90
2024-03-26T12:40:29.139Z,21.50
2024-03-26T12:42:56.441Z,21.24
2024-03-26T12:45:24.125Z,20.87
2024-03-26T12:47:51.304Z,20.90
2024-03-26T12:50:18.470Z,21.15
2024-03-26T12:52:46.003Z,21.29
2024-03-26T12:55:15.817Z,21.61
2024-03-26T12:57:44.045Z,22.04
2024-03-26T13:00:12.123Z,22.58
2024-03-26T13:02:39.326Z,23.30
2024-03-26T13:05:06.765Z,23.70
2024-03-26T13:07:37.166Z,24.02
2024-03-26T13:10:05.396Z,24.18
2024-03-26T13:12:32.562Z,24.32
2024-03-26T13:14:59.868Z,24.51
2024-03-26T13:17:27.038Z,24.34
2024-03-26T13:19:56.101Z,23.74
2024-03-26T13:22:24.691Z,23.52
2024-03-26T13:24:55.782Z,23.78
2024-03-26T13:27:23.052Z,23.58
2024-03-26T13:29:50.294Z,22.60
2024-03-26T13:32:19.745Z,21.41
2024-03-26T13:34:47.177Z,20.58
2024-03-26T13:37:14.393Z,20.27
2024-03-26T13:39:42.145Z,20.59
2024-03-26T13:42:09.612Z,21.20
2024-03-26T13:44:36.781Z,21.88
2024-03-26T13:47:04.129Z,22.52
2024-03-26T13:49:31.312Z,23.04
2024-03-26T13:51:58.572Z,23.64
2024-03-26T13:54:25.754Z,23.81
2024-03-26T13:56:52.929Z,24.25
2024-03-26T13:59:20.178Z,24.85
2024-03-26T14:01:47.605Z,25.17
2024-03-26T14:04:14.961Z,25.24
2024-03-26T14:06:42.155Z,25.16
2024-03-26T14:09:09.999Z,25.48
2024-03-26T14:11:37.141Z,25.96
2024-03-26T14:14:04.870Z,26.31
2024-03-26T14:16:32.019Z,26.74
2024-03-26T14:18:59.158Z,27.12
2024-03-26T14:21:26.335Z,27.18
2024-03-26T14:23:53.468Z,27.02
2024-03-26T14:26:20.658Z,26.98
2024-03-26T14:28:47.855Z,27.02
2024-03-26T14:31:18.011Z,27.03
2024-03-26T14:33:45.199Z,27.34
2024-03-26T14:36:13.350Z,27.78
2024-03-26T14:38:41.322Z,28.19
2024-03-26T14:41:08.775Z,28.49
2024-03-26T14:43:36.127Z,28.59
2024-03-26T14:46:04.064Z,28.57
2024-03-26T14:48:31.321Z,28.61
2024-03-26T14:51:01.026Z,28.60
2024-03-26T14:53:28.230Z,28.67
2024-03-26T14:55:58.406Z,28.76
2024-03-26T14:58:25.569Z,28.93
2024-03-26T15:00:52.752Z,29.15
2024-03-26T15:03:21.841Z,29.24
2024-03-26T15:05:49.911Z,29.20
2024-03-26T15:08:17.120Z,29.33
2024-03-26T15:10:44.305Z,29.65
2024-03-26T15:13:11.499Z,30.08
2024-03-26T15:15:38.793Z,30.22
2024-03-26T15:18:06.328Z,30.38
2024-03-26T15:20:35.822Z,30.61
2024-03-26T15:23:03.899Z,30.57
2024-03-26T15:25:31.155Z,30.59
2024-03-26T15:28:01.345Z,30.58
2024-03-26T15:30:31.609Z,30.23
2024-03-26T15:32:58.802Z,29.75
2024-03-26T15:35:26.146Z,29.21
2024-03-26T15:37:53.303Z,28.33
2024-03-26T15:40:20.482Z,27.32
2024-03-26T15:42:47.650Z,26.50
2024-03-26T15:45:14.902Z,25.83
2024-03-26T15:47:42.091Z,25.23
2024-03-26T15:50:10.715Z,24.62
2024-03-26T15:52:37.874Z,24.07
2024-03-26T15:55:05.258Z,23.70
2024-03-26T15:57:32.426Z,24.05
2024-03-26T15:59:59.601Z,24.78
2024-03-26T16:02:26.883Z,25.46
2024-03-26T16:04:54.043Z,25.72
2024-03-26T16:07:21.944Z,25.29
2024-03-26T16:10:04.224Z,24.53
2024-03-26T16:12:36.301Z,23.70
2024-03-26T16:15:05.137Z,22.81
2024-03-26T16:17:32.340Z,21.96
2024-03-26T16:20:00.579Z,21.18
2024-03-26T16:22:27.816Z,20.43
2024-03-26T16:24:55.307Z,19.80
2024-03-26T16:27:22.580Z,19.32
2024-03-26T16:29:50.202Z,18.87
2024-03-26T16:32:18.666Z,18.40
2024-03-26T16:34:49.261Z,17.85
2024-03-26T16:37:16.693Z,17.32
2024-03-26T16:39:44.154Z,16.82
2024-03-26T16:42:11.332Z,16.29
2024-03-26T16:44:40.854Z,15.81
2024-03-26T16:47:08.067Z,15.29
2024-03-26T16:49:35.232Z,14.82
2024-03-26T16:52:02.417Z,14.41
2024-03-26T16:54:29.862Z,14.05
2024-03-26T16:56:57.019Z,13.71
2024-03-26T16:59:25.283Z,13.39
2024-03-26T17:01:55.127Z,13.07
2024-03-26T17:04:22.599Z,12.79
2024-03-26T17:06:49.846Z,12.55
2024-03-26T17:09:16.978Z,12.35
2024-03-26T17:11:44.261Z,12.16
2024-03-26T17:14:12.279Z,11.99
2024-03-26T17:16:59.218Z,11.85
2024-03-26T17:19:29.452Z,11.68
2024-03-26T17:21:56.951Z,11.51
2024-03-26T17:24:24.264Z,11.35
2024-03-26T17:26:52.134Z,11.22
2024-03-26T17:29:19.453Z,11.09
2024-03-26T17:31:47.729Z,10.97
2024-03-26T17:34:15.159Z,10.84
2024-03-26T17:36:42.419Z,10.72
2024-03-26T17:39:10.169Z,10.60
2024-03-26T17:41:37.401Z,10.48
2024-03-26T17:44:05.483Z,10.36
2024-03-26T17:46:32.638Z,10.25
2024-03-26T17:48:59.876Z,10.15
2024-03-26T17:51:27.072Z,10.05
2024-03-26T17:53:54.314Z,9.96
2024-03-26T17:56:21.474Z,9.87
2024-03-26T17:58:51.200Z,9.79
2024-03-26T18:01:18.385Z,9.71
2024-03-26T18:03:45.589Z,9.64
2024-03-26T18:06:16.390Z,9.58
2024-03-26T18:08:43.647Z,9.51
2024-03-26T18:11:11.195Z,9.46
2024-03-26T18:13:38.703Z,9.42
2024-03-26T18:16:06.412Z,9.38
2024-03-26T18:18:33.872Z,9.34
2024-03-26T18:21:05.095Z,9.30
2024-03-26T18:23:34.188Z,9.27
2024-03-26T18:26:03.637Z,9.23
2024-03-26T18:28:31.082Z,9.18
2024-03-26T18:30:59.478Z,9.13
2024-03-26T18:33:26.964Z,9.10
2024-03-26T18:36:02.394Z,9.06
2024-03-26T18:38:31.367Z,9.01
2024-03-26T18:41:06.316Z,8.97
2024-03-26T18:43:35.002Z,8.94
2024-03-26T18:46:14.160Z,8.90
2024-03-26T18:48:42.594Z,8.87
2024-03-26T18:51:10.263Z,8.85
2024-03-26T18:53:37.467Z,8.82
2024-03-26T18:56:07.116Z,8.80
2024-03-26T18:58:38.709Z,8.78
2024-03-26T19:01:12.100Z,8.75
2024-03-26T19:03:39.623Z,8.73
2024-03-26T19:06:06.991Z,8.71
2024-03-26T19:08:34.182Z,8.70
2024-03-26T19:11:02.200Z,8.68
2024-03-26T19:13:29.485Z,8.66
2024-03-26T19:15:56.687Z,8.63
2024-03-26T19:18:24.388Z,8.61
2024-03-26T19:20:53.744Z,8.59
2024-03-26T19:23:22.147Z,8.56
2024-03-26T19:25:55.323Z,8.53
2024-03-26T19:28:22.561Z,8.50
2024-03-26T19:30:49.720Z,8.47
2024-03-26T19:33:19.428Z,8.46
2024-03-26T19:35:46.719Z,8.45
2024-03-26T19:38:14.231Z,8.43
2024-03-26T19:40:41.395Z,8.41
2024-03-26T19:43:08.556Z,8.39
2024-03-26T19:45:36.540Z,8.37
2024-03-26T19:48:06.975Z,8.36
2024-03-26T19:50:36.260Z,8.34
2024-03-26T19:53:03.691Z,8.31
2024-03-26T19:55:30.915Z,8.30
2024-03-26T19:57:58.104Z,8.28
2024-03-26T20:00:25.237Z,8.28
2024-03-26T20:02:52.435Z,8.26
2024-03-26T20:05:20.078Z,8.25
2024-03-26T20:07:49.374Z,8.24
2024-03-26T20:10:16.584Z,8.23
2024-03-26T20:12:44.772Z,8.22
2024-03-26T20:15:12.467Z,8.20
2024-03-26T20:17:39.633Z,8.18
2024-03-26T20:20:15.877Z,8.17
2024-03-26T20:22:43.208Z,8.13
2024-03-26T20:25:10.396Z,8.12
2024-03-26T20:27:37.550Z,8.10
2024-03-26T20:30:05.660Z,8.07
2024-03-26T20:32:32.837Z,8.05
2024-03-26T20:35:00.717Z,8.03
2024-03-26T20:37:27.874Z,8.01
2024-03-26T20:39:55.419Z,8.00
2024-03-26T20:42:22.665Z,7.98
2024-03-26T20:44:51.774Z,7.95
2024-03-26T20:47:18.954Z,7.92
2024-03-26T20:49:46.152Z,7.89
2024-03-26T20:52:13.350Z,7.87
2024-03-26T20:54:40.585Z,7.85
2024-03-26T20:57:07.863Z,7.85
2024-03-26T20:59:35.035Z,7.83
2024-03-26T21:02:02.464Z,7.81
2024-03-26T21:04:29.664Z,7.80
2024-03-26T21:06:58.929Z,7.79
2024-03-26T21:09:26.831Z,7.76
2024-03-26T21:11:54.074Z,7.75
2024-03-26T21:14:21.755Z,7.73
2024-03-26T21:16:50.130Z,7.70
2024-03-26T21:19:18.307Z,7.68
2024-03-26T21:21:45.615Z,7.65
2024-03-26T21:24:12.788Z,7.64
2024-03-26T21:26:40.345Z,7.63
2024-03-26T21:29:07.551Z,7.60
2024-03-26T21:31:35.071Z,7.58
2024-03-26T21:34:02.237Z,7.56
2024-03-26T21:36:29.583Z,7.53
2024-03-26T21:38:57.324Z,7.52
2024-03-26T21:41:24.502Z,7.50
2024-03-26T21:43:51.628Z,7.49
2024-03-26T21:46:18.787Z,7.47
2024-03-26T21:48:46.437Z,7.46
2024-03-26T21:51:16.561Z,7.45
2024-03-26T21:53:43.731Z,7.45
2024-03-26T21:56:11.980Z,7.44
2024-03-26T21:58:39.150Z,7.42
2024-03-26T22:01:11.279Z,7.40
2024-03-26T22:03:39.117Z,7.38
2024-03-26T22:06:13.890Z,7.37
2024-03-26T22:08:42.493Z,7.34
2024-03-26T22:11:12.159Z,7.33
2024-03-26T22:13:41.369Z,7.32
2024-03-26T22:16:09.699Z,7.30
2024-03-26T22:18:39.115Z,7.28
2024-03-26T22:21:11.694Z,7.28
2024-03-26T22:23:38.900Z,7.27
2024-03-26T22:26:09.042Z,7.26
2024-03-26T22:28:36.647Z,7.23
2024-03-26T22:31:05.363Z,7.22
2024-03-26T22:33:36.487Z,7.21
2024-03-26T22:36:08.648Z,7.20
2024-03-26T22:38:37.086Z,7.20
2024-03-26T22:41:06.320Z,7.19
2024-03-26T22:43:41.362Z,7.18
2024-03-26T22:46:10.350Z,7.16
2024-03-26T22:48:38.657Z,7.17
2024-03-26T22:51:05.941Z,7.17
2024-03-26T22:53:39.022Z,7.17
2024-03-26T22:56:08.358Z,7.16
2024-03-26T22:58:49.534Z,7.16
2024-03-26T23:01:17.279Z,7.16
2024-03-26T23:03:46.863Z,7.16
2024-03-26T23:06:14.376Z,7.15
2024-03-26T23:08:56.154Z,7.14
2024-03-26T23:11:37.392Z,7.14
2024-03-26T23:14:11.880Z,7.13
2024-03-26T23:16:39.095Z,7.13
2024-03-26T23:19:14.068Z,7.12
2024-03-26T23:21:41.725Z,7.13
2024-03-26T23:24:22.888Z,7.12
2024-03-26T23:27:04.768Z,7.12
2024-03-26T23:29:45.971Z,7.11
2024-03-26T23:32:27.590Z,7.11
2024-03-26T23:35:08.878Z,7.10
2024-03-26T23:37:50.426Z,7.09
2024-03-26T23:40:26.981Z,7.10
2024-03-26T23:42:54.225Z,7.09
2024-03-26T23:45:29.169Z,7.09
2024-03-26T23:48:01.874Z,7.09
2024-03-26T23:50:29.051Z,7.08
2024-03-26T23:52:58.733Z,7.05
2024-03-26T23:55:26.455Z,7.03
2024-03-26T23:57:55.853Z,7.01
